Point, Texas
Current Conditions -  °F | °C
As of 12:15 AM on Saturday 29 Nov 2014 (Local Time) from KGVT Reporting Station
Clear Clear  
Wind Chill: 59°   Ceiling: Unl
Heat Index: 59°   Visibility: 10mi
Dew Point: 48°   Wind: 12mph
Humidity: 67%   Direction: 190°S
Pressure: 29.99"   Gusts: NA
Location:  32.93°N, 95.87°W
Report Text: KGVT 290615Z AUTO 19010KT 10SM CLR 15/09 A2999 RMK AO2
Loading
Personal Weather Stations






























Interactive Weather Map New forecast layout! Learn more

10-Day Weather Forecast

Advertisements
Track Severe Weather on mobile